createdAt,value
2023-03-04T13:52:42.372Z,43.18
2023-03-04T13:55:31.636Z,41.66
2023-03-04T13:57:58.797Z,41.31
2023-03-04T14:00:25.892Z,40.28
2023-03-04T14:02:53.104Z,41.40
2023-03-04T14:05:20.455Z,41.15
2023-03-04T14:07:49.103Z,40.68
2023-03-04T14:10:23.422Z,39.75
2023-03-04T14:12:51.587Z,40.49
2023-03-04T14:15:22.723Z,40.31
2023-03-04T14:17:50.804Z,39.67
2023-03-04T14:20:25.473Z,40.17
2023-03-04T14:22:54.099Z,39.80
2023-03-04T14:25:22.408Z,39.98
2023-03-04T14:27:49.713Z,38.46
2023-03-04T14:30:39.548Z,39.25
2023-03-04T14:33:09.313Z,38.87
2023-03-04T14:35:36.872Z,38.91
2023-03-04T14:38:06.639Z,38.43
2023-03-04T14:40:35.164Z,39.11
2023-03-04T14:43:04.069Z,38.43
2023-03-04T14:45:31.621Z,39.49
2023-03-04T14:48:00.497Z,38.22
2023-03-04T14:50:27.841Z,38.19
2023-03-04T14:53:13.937Z,37.79
2023-03-04T14:55:41.246Z,37.96
2023-03-04T14:58:20.133Z,37.98
2023-03-04T15:00:47.782Z,37.19
2023-03-04T15:03:21.834Z,36.15
2023-03-04T15:05:49.563Z,36.72
2023-03-04T15:08:22.025Z,36.41
2023-03-04T15:10:54.857Z,36.90
2023-03-04T15:13:37.378Z,37.44
2023-03-04T15:16:05.417Z,36.63
2023-03-04T15:18:36.651Z,37.38
2023-03-04T15:21:05.008Z,39.06
2023-03-04T15:23:34.288Z,39.38
2023-03-04T15:26:02.932Z,38.70
2023-03-04T15:28:33.614Z,38.89
2023-03-04T15:31:00.809Z,39.13
2023-03-04T15:33:29.284Z,38.27
2023-03-04T15:35:57.630Z,38.37
2023-03-04T15:38:24.962Z,37.79
2023-03-04T15:40:54.549Z,37.48
2023-03-04T15:43:22.349Z,37.62
2023-03-04T15:45:49.960Z,37.63
2023-03-04T15:48:17.581Z,37.36
2023-03-04T15:50:45.724Z,38.15
2023-03-04T15:53:15.327Z,37.66
2023-03-04T15:55:43.444Z,38.75
2023-03-04T15:58:12.118Z,38.42
2023-03-04T16:00:39.426Z,36.73
2023-03-04T16:03:06.693Z,36.52
2023-03-04T16:05:37.593Z,36.80
2023-03-04T16:08:06.427Z,37.35
2023-03-04T16:10:33.712Z,38.63
2023-03-04T16:13:02.835Z,37.91
2023-03-04T16:15:31.602Z,37.17
2023-03-04T16:17:59.136Z,35.92
2023-03-04T16:20:28.777Z,34.54
2023-03-04T16:22:57.522Z,33.14
2023-03-04T16:25:24.944Z,34.41
2023-03-04T16:27:52.529Z,34.67
2023-03-04T16:30:21.574Z,35.47
2023-03-04T16:32:54.148Z,34.29
2023-03-04T16:35:22.273Z,33.87
2023-03-04T16:37:51.206Z,34.24
2023-03-04T16:40:19.546Z,34.24
2023-03-04T16:42:51.826Z,33.32
2023-03-04T16:45:19.918Z,33.88
2023-03-04T16:47:47.265Z,34.20
2023-03-04T16:50:16.096Z,35.16
2023-03-04T16:52:45.057Z,35.31
2023-03-04T16:55:15.904Z,34.53
2023-03-04T16:57:43.197Z,35.92
2023-03-04T17:00:11.699Z,37.79
2023-03-04T17:02:39.185Z,38.50
2023-03-04T17:05:09.772Z,38.64
2023-03-04T17:07:39.054Z,39.24
2023-03-04T17:10:07.317Z,38.81
2023-03-04T17:12:34.656Z,40.80
2023-03-04T17:15:02.072Z,42.55
2023-03-04T17:17:29.397Z,41.11
2023-03-04T17:19:56.579Z,40.96
2023-03-04T17:22:24.445Z,39.91
2023-03-04T17:24:53.055Z,40.81
2023-03-04T17:27:25.771Z,40.48
2023-03-04T17:29:53.290Z,40.20
2023-03-04T17:32:20.497Z,40.59
2023-03-04T17:34:47.721Z,40.90
2023-03-04T17:37:14.933Z,40.24
2023-03-04T17:39:42.337Z,40.75
2023-03-04T17:42:10.975Z,40.28
2023-03-04T17:44:38.121Z,40.89
2023-03-04T17:47:05.539Z,41.52
2023-03-04T17:49:32.809Z,40.95
2023-03-04T17:52:00.046Z,40.67
2023-03-04T17:54:27.296Z,40.15
2023-03-04T17:56:54.516Z,40.33
2023-03-04T17:59:23.194Z,40.89
2023-03-04T18:01:52.940Z,39.94
2023-03-04T18:04:21.177Z,39.11
2023-03-04T18:06:48.476Z,39.95
2023-03-04T18:09:15.756Z,40.94
2023-03-04T18:11:43.102Z,39.37
2023-03-04T18:14:10.272Z,40.12
2023-03-04T18:16:39.146Z,39.92
2023-03-04T18:19:06.440Z,39.63
2023-03-04T18:21:33.707Z,40.12
2023-03-04T18:24:01.031Z,41.05
2023-03-04T18:26:28.319Z,40.38
2023-03-04T18:28:55.774Z,40.81
2023-03-04T18:31:24.089Z,40.87
2023-03-04T18:33:52.805Z,42.07
2023-03-04T18:36:20.101Z,41.45
2023-03-04T18:38:47.271Z,41.76
2023-03-04T18:41:14.867Z,42.58
2023-03-04T18:43:42.167Z,43.17
2023-03-04T18:46:10.202Z,43.35
2023-03-04T18:48:39.260Z,43.57
2023-03-04T18:51:08.060Z,45.15
2023-03-04T18:53:35.274Z,45.40
2023-03-04T18:56:04.538Z,44.47
2023-03-04T18:58:33.813Z,43.65
2023-03-04T19:01:01.147Z,43.18
2023-03-04T19:03:28.540Z,42.57
2023-03-04T19:05:55.822Z,42.17
2023-03-04T19:08:24.474Z,42.48
2023-03-04T19:10:51.780Z,44.26
2023-03-04T19:13:19.095Z,44.20
2023-03-04T19:15:46.389Z,43.72
2023-03-04T19:18:13.620Z,40.60
2023-03-04T19:20:40.965Z,36.93
2023-03-04T19:23:08.086Z,35.52
2023-03-04T19:25:38.216Z,35.91
2023-03-04T19:28:05.785Z,35.64
2023-03-04T19:30:33.050Z,33.89
2023-03-04T19:33:00.246Z,33.16
2023-03-04T19:35:28.211Z,32.41
2023-03-04T19:37:55.522Z,31.85
2023-03-04T19:40:22.689Z,33.23
2023-03-04T19:42:52.737Z,33.91
2023-03-04T19:45:20.074Z,34.71
2023-03-04T19:47:47.479Z,34.34
2023-03-04T19:50:14.754Z,35.23
2023-03-04T19:52:41.997Z,36.16
2023-03-04T19:55:10.280Z,36.40
2023-03-04T19:57:37.601Z,37.41
2023-03-04T20:00:07.856Z,37.69
2023-03-04T20:02:35.186Z,36.51
2023-03-04T20:05:02.298Z,37.50
2023-03-04T20:07:29.567Z,35.50
2023-03-04T20:09:57.028Z,35.63
2023-03-04T20:12:24.318Z,35.28
2023-03-04T20:14:51.632Z,35.24
2023-03-04T20:17:20.364Z,37.04
2023-03-04T20:19:47.644Z,37.23
2023-03-04T20:22:14.920Z,36.19
2023-03-04T20:24:42.044Z,36.33
2023-03-04T20:27:10.179Z,35.39
2023-03-04T20:29:37.248Z,34.52
2023-03-04T20:32:04.690Z,33.64
2023-03-04T20:34:33.456Z,33.75
2023-03-04T20:37:00.625Z,33.81
2023-03-04T20:39:30.410Z,33.97
2023-03-04T20:41:57.970Z,33.52
2023-03-04T20:44:25.097Z,34.10
2023-03-04T20:46:53.261Z,32.43
2023-03-04T20:49:22.156Z,33.40
2023-03-04T20:51:51.213Z,33.27
2023-03-04T20:54:18.513Z,33.85
2023-03-04T20:56:45.794Z,33.03
2023-03-04T20:59:13.160Z,32.69
2023-03-04T21:01:42.385Z,33.79
2023-03-04T21:04:12.189Z,34.63
2023-03-04T21:06:40.970Z,33.99
2023-03-04T21:09:11.521Z,34.07
2023-03-04T21:11:38.768Z,34.40
2023-03-04T21:14:07.526Z,34.81
2023-03-04T21:16:34.972Z,33.97
2023-03-04T21:19:02.123Z,34.25
2023-03-04T21:21:29.646Z,33.29
2023-03-04T21:23:57.609Z,34.04
2023-03-04T21:26:26.388Z,33.60
2023-03-04T21:28:53.830Z,34.18
2023-03-04T21:31:22.626Z,33.42
2023-03-04T21:33:49.890Z,33.78
2023-03-04T21:36:17.066Z,33.79
2023-03-04T21:38:44.561Z,34.86
2023-03-04T21:41:12.417Z,33.89
2023-03-04T21:43:41.216Z,33.57
2023-03-04T21:46:08.483Z,33.15
2023-03-04T21:48:35.822Z,33.66
2023-03-04T21:51:03.508Z,33.69
2023-03-04T21:53:31.210Z,32.00
2023-03-04T21:55:58.490Z,31.32
2023-03-04T21:58:25.699Z,30.66
2023-03-04T22:00:54.478Z,30.53
2023-03-04T22:03:21.905Z,30.63
2023-03-04T22:05:49.210Z,30.73
2023-03-04T22:08:17.268Z,30.11
2023-03-04T22:10:44.600Z,29.35
2023-03-04T22:13:12.655Z,29.75
2023-03-04T22:15:41.069Z,29.84
2023-03-04T22:18:11.036Z,28.50
2023-03-04T22:20:39.305Z,28.27
2023-03-04T22:23:06.585Z,28.44
2023-03-04T22:25:35.048Z,27.15
2023-03-04T22:28:02.299Z,26.98
2023-03-04T22:30:30.791Z,27.24
2023-03-04T22:32:58.077Z,27.25
2023-03-04T22:35:26.819Z,26.88
2023-03-04T22:37:54.047Z,27.05
2023-03-04T22:40:21.471Z,26.98
2023-03-04T22:42:48.683Z,27.71
2023-03-04T22:45:17.191Z,28.20
2023-03-04T22:47:47.155Z,26.80
2023-03-04T22:50:14.478Z,27.69
2023-03-04T22:52:43.168Z,27.77
2023-03-04T22:55:11.691Z,28.63
2023-03-04T22:57:38.956Z,29.73
2023-03-04T23:00:07.199Z,28.21
2023-03-04T23:02:34.456Z,28.93
2023-03-04T23:05:01.704Z,29.13
2023-03-04T23:07:28.922Z,28.68
2023-03-04T23:09:57.695Z,31.35
2023-03-04T23:12:25.400Z,30.95
2023-03-04T23:14:52.730Z,29.46
2023-03-04T23:17:20.015Z,29.48
2023-03-04T23:19:47.226Z,29.89
2023-03-04T23:22:14.523Z,29.57
2023-03-04T23:24:41.859Z,30.30
2023-03-04T23:27:10.669Z,29.36
2023-03-04T23:29:37.963Z,30.08
2023-03-04T23:32:05.894Z,29.58
2023-03-04T23:34:33.179Z,29.51
2023-03-04T23:37:00.443Z,28.50
2023-03-04T23:39:27.749Z,28.29
2023-03-04T23:41:54.902Z,28.83
2023-03-04T23:44:23.839Z,28.53
2023-03-04T23:46:51.086Z,28.24
2023-03-04T23:49:18.356Z,28.32
2023-03-04T23:51:45.738Z,27.91
2023-03-04T23:54:13.222Z,28.76
2023-03-04T23:56:40.487Z,28.99
2023-03-04T23:59:07.961Z,29.36
